Time,TemperatureF,DewpointF,PressureIn,WindDirection,WindDirectionDegrees,WindSpeedMPH,WindSpeedGustMPH,Humidity,HourlyPrecipIn,Conditions,Clouds,dailyrainin,SoftwareType,DateUTC
2013-11-09 00:00:00,29.0,13.0,-100.00,WNW,299,1.0,3.0,51,-99.99,,,-99.99,,2013-11-09 07:00:00,
2013-11-09 00:53:00,29.0,13.0,-100.00,WNW,299,1.0,3.0,51,-99.99,,,-99.99,,2013-11-09 07:53:00,
2013-11-09 03:00:00,26.0,12.0,-100.00,WSW,246,2.0,3.0,54,-99.99,,,-99.99,,2013-11-09 10:00:00,
2013-11-09 03:52:00,26.0,12.0,-100.00,WSW,246,2.0,3.0,54,-99.99,,,-99.99,,2013-11-09 10:52:00,
2013-11-09 04:00:00,26.0,11.0,-100.00,WSW,257,1.0,3.0,52,-99.99,,,-99.99,,2013-11-09 11:00:00,
2013-11-09 04:52:00,26.0,11.0,-100.00,WSW,257,1.0,3.0,52,-99.99,,,-99.99,,2013-11-09 11:52:00,
2013-11-09 05:00:00,26.0,11.0,-100.00,West,275,1.0,3.0,51,-99.99,,,-99.99,,2013-11-09 12:00:00,
2013-11-09 05:52:00,26.0,11.0,-100.00,West,275,1.0,3.0,51,-99.99,,,-99.99,,2013-11-09 12:52:00,
2013-11-09 06:00:00,25.0,10.0,-100.00,NW,314,1.0,3.0,51,-99.99,,,-99.99,,2013-11-09 13:00:00,
2013-11-09 06:52:00,25.0,10.0,-100.00,NW,314,1.0,3.0,51,-99.99,,,-99.99,,2013-11-09 13:52:00,
2013-11-09 10:00:00,37.0,11.0,-100.00,South,181,1.0,3.0,33,-99.99,,,-99.99,,2013-11-09 17:00:00,
2013-11-09 10:52:00,37.0,11.0,-100.00,South,181,1.0,3.0,33,-99.99,,,-99.99,,2013-11-09 17:52:00,
2013-11-09 11:00:00,44.0,10.0,-100.00,South,184,2.0,6.0,24,-99.99,,,-99.99,,2013-11-09 18:00:00,
2013-11-09 11:52:00,44.0,10.0,-100.00,South,184,2.0,6.0,24,-99.99,,,-99.99,,2013-11-09 18:52:00,
2013-11-09 12:00:00,45.0,9.0,-100.00,East,84,3.0,9.0,22,-99.99,,,-99.99,,2013-11-09 19:00:00,
2013-11-09 12:52:00,45.0,9.0,-100.00,East,84,3.0,9.0,22,-99.99,,,-99.99,,2013-11-09 19:52:00,
2013-11-09 13:00:00,48.0,10.0,-100.00,South,178,4.0,11.0,21,-99.99,,,-99.99,,2013-11-09 20:00:00,
2013-11-09 13:52:00,48.0,10.0,-100.00,South,178,4.0,11.0,21,-99.99,,,-99.99,,2013-11-09 20:52:00,
2013-11-09 14:00:00,48.0,11.0,-100.00,South,191,4.0,11.0,22,-99.99,,,-99.99,,2013-11-09 21:00:00,
2013-11-09 14:54:00,48.0,11.0,-100.00,South,191,4.0,11.0,22,-99.99,,,-99.99,,2013-11-09 21:54:00,
2013-11-09 15:00:00,49.0,10.0,-100.00,SW,215,4.0,10.0,20,-99.99,,,-99.99,,2013-11-09 22:00:00,
2013-11-09 15:54:00,49.0,10.0,-100.00,SW,215,4.0,10.0,20,-99.99,,,-99.99,,2013-11-09 22:54:00,
2013-11-09 16:00:00,46.0,12.0,-100.00,SW,223,6.0,13.0,25,-99.99,,,-99.99,,2013-11-09 23:00:00,
2013-11-09 16:53:00,46.0,12.0,-100.00,SW,223,6.0,13.0,25,-99.99,,,-99.99,,2013-11-09 23:53:00,
2013-11-09 17:00:00,42.0,14.0,-100.00,WSW,249,7.0,12.0,32,-99.99,,,-99.99,,2013-11-10 00:00:00,
2013-11-09 17:52:00,42.0,14.0,-100.00,WSW,249,7.0,12.0,32,-99.99,,,-99.99,,2013-11-10 00:52:00,
2013-11-09 18:00:00,38.0,14.0,-100.00,West,260,7.0,15.0,37,-99.99,,,-99.99,,2013-11-10 01:00:00,
2013-11-09 18:52:00,38.0,14.0,-100.00,West,260,7.0,15.0,37,-99.99,,,-99.99,,2013-11-10 01:52:00,
2013-11-09 19:00:00,36.0,11.0,-100.00,West,271,5.0,9.0,35,-99.99,,,-99.99,,2013-11-10 02:00:00,
2013-11-09 19:52:00,36.0,11.0,-100.00,West,271,5.0,9.0,35,-99.99,,,-99.99,,2013-11-10 02:52:00,
2013-11-09 20:00:00,-999.0,-99.9,-100.00,WNW,302,4.0,7.0,-999,-99.99,,,-99.99,,2013-11-10 03:00:00,
2013-11-09 20:54:00,35.0,10.0,-100.00,WNW,302,4.0,7.0,35,-99.99,,,-99.99,,2013-11-10 03:54:00,
2013-11-09 21:00:00,32.0,12.0,-100.00,NW,324,2.0,3.0,44,-99.99,,,-99.99,,2013-11-10 04:00:00,
2013-11-09 21:52:00,32.0,12.0,-100.00,NW,324,2.0,3.0,44,-99.99,,,-99.99,,2013-11-10 04:52:00,
2013-11-09 22:00:00,30.0,13.0,-100.00,WNW,297,1.0,2.0,49,-99.99,,,-99.99,,2013-11-10 05:00:00,
2013-11-09 22:54:00,30.0,13.0,-100.00,WNW,297,1.0,2.0,49,-99.99,,,-99.99,,2013-11-10 05:54:00,
2013-11-09 23:00:00,28.0,12.0,-100.00,WNW,302,1.0,2.0,50,-99.99,,,-99.99,,2013-11-10 06:00:00,
2013-11-09 23:52:00,28.0,12.0,-100.00,WNW,302,1.0,2.0,50,-99.99,,,-99.99,,2013-11-10 06:52:00,